sensor_id;sensor_type;location;lat;lon;timestamp;P1;durP1;ratioP1;P2;durP2;ratioP2
44272;SDS011;29964;17.182;-96.766;2023-03-07T00:01:06;3.92;;;1.95;;
44272;SDS011;29964;17.182;-96.766;2023-03-07T00:03:34;3.83;;;2.15;;
44272;SDS011;29964;17.182;-96.766;2023-03-07T00:08:28;3.95;;;2.08;;
44272;SDS011;29964;17.182;-96.766;2023-03-07T00:10:58;4.32;;;2.47;;
44272;SDS011;29964;17.182;-96.766;2023-03-07T00:13:27;2.75;;;2.03;;
44272;SDS011;29964;17.182;-96.766;2023-03-07T00:15:58;3.05;;;2.28;;
44272;SDS011;29964;17.182;-96.766;2023-03-07T00:18:25;2.33;;;1.67;;
44272;SDS011;29964;17.182;-96.766;2023-03-07T00:20:58;4.80;;;2.40;;
44272;SDS011;29964;17.182;-96.766;2023-03-07T00:23:26;3.25;;;2.00;;
44272;SDS011;29964;17.182;-96.766;2023-03-07T00:26:01;8.20;;;2.70;;
44272;SDS011;29964;17.182;-96.766;2023-03-07T00:28:28;26.23;;;2.85;;
44272;SDS011;29964;17.182;-96.766;2023-03-07T00:31:00;6.75;;;2.88;;
44272;SDS011;29964;17.182;-96.766;2023-03-07T00:33:28;6.30;;;2.30;;
44272;SDS011;29964;17.182;-96.766;2023-03-07T00:36:04;3.28;;;2.08;;
44272;SDS011;29964;17.182;-96.766;2023-03-07T00:38:31;5.57;;;2.22;;
44272;SDS011;29964;17.182;-96.766;2023-03-07T00:40:59;18.83;;;3.15;;
44272;SDS011;29964;17.182;-96.766;2023-03-07T00:43:27;5.22;;;2.45;;
44272;SDS011;29964;17.182;-96.766;2023-03-07T00:45:54;2.92;;;2.03;;
44272;SDS011;29964;17.182;-96.766;2023-03-07T00:48:22;5.05;;;2.88;;
44272;SDS011;29964;17.182;-96.766;2023-03-07T00:50:50;11.32;;;3.10;;
44272;SDS011;29964;17.182;-96.766;2023-03-07T00:53:17;6.57;;;2.60;;
44272;SDS011;29964;17.182;-96.766;2023-03-07T00:55:54;6.43;;;3.13;;
44272;SDS011;29964;17.182;-96.766;2023-03-07T00:58:21;5.55;;;3.08;;
44272;SDS011;29964;17.182;-96.766;2023-03-07T01:00:50;3.80;;;2.42;;
44272;SDS011;29964;17.182;-96.766;2023-03-07T01:03:18;5.43;;;3.28;;
44272;SDS011;29964;17.182;-96.766;2023-03-07T01:05:45;5.43;;;3.42;;
44272;SDS011;29964;17.182;-96.766;2023-03-07T01:08:13;6.57;;;2.85;;
44272;SDS011;29964;17.182;-96.766;2023-03-07T01:10:40;6.32;;;2.88;;
44272;SDS011;29964;17.182;-96.766;2023-03-07T01:13:08;26.73;;;3.70;;
44272;SDS011;29964;17.182;-96.766;2023-03-07T01:15:39;9.57;;;3.93;;
44272;SDS011;29964;17.182;-96.766;2023-03-07T01:18:07;6.13;;;3.63;;
44272;SDS011;29964;17.182;-96.766;2023-03-07T01:20:35;24.70;;;4.23;;
44272;SDS011;29964;17.182;-96.766;2023-03-07T01:23:03;14.23;;;4.17;;
44272;SDS011;29964;17.182;-96.766;2023-03-07T01:25:30;6.40;;;3.33;;
44272;SDS011;29964;17.182;-96.766;2023-03-07T01:27:57;19.93;;;4.47;;
44272;SDS011;29964;17.182;-96.766;2023-03-07T01:30:25;6.27;;;3.17;;
44272;SDS011;29964;17.182;-96.766;2023-03-07T01:32:59;8.67;;;4.67;;
44272;SDS011;29964;17.182;-96.766;2023-03-07T01:35:26;4.88;;;2.97;;
44272;SDS011;29964;17.182;-96.766;2023-03-07T01:37:53;9.50;;;4.10;;
44272;SDS011;29964;17.182;-96.766;2023-03-07T01:40:21;6.97;;;4.23;;
44272;SDS011;29964;17.182;-96.766;2023-03-07T01:42:49;27.00;;;4.40;;
44272;SDS011;29964;17.182;-96.766;2023-03-07T01:47:59;10.57;;;3.10;;
44272;SDS011;29964;17.182;-96.766;2023-03-07T01:50:34;7.25;;;4.38;;
44272;SDS011;29964;17.182;-96.766;2023-03-07T01:53:01;5.70;;;3.73;;
44272;SDS011;29964;17.182;-96.766;2023-03-07T01:55:32;13.17;;;4.83;;
44272;SDS011;29964;17.182;-96.766;2023-03-07T01:58:03;8.33;;;4.63;;
44272;SDS011;29964;17.182;-96.766;2023-03-07T02:00:30;10.67;;;5.07;;
44272;SDS011;29964;17.182;-96.766;2023-03-07T02:05:30;9.67;;;3.90;;
44272;SDS011;29964;17.182;-96.766;2023-03-07T02:08:05;5.40;;;3.73;;
44272;SDS011;29964;17.182;-96.766;2023-03-07T02:10:33;7.47;;;3.93;;
44272;SDS011;29964;17.182;-96.766;2023-03-07T02:13:01;7.37;;;4.53;;
44272;SDS011;29964;17.182;-96.766;2023-03-07T02:15:28;7.20;;;3.13;;
44272;SDS011;29964;17.182;-96.766;2023-03-07T02:17:56;5.77;;;2.83;;
44272;SDS011;29964;17.182;-96.766;2023-03-07T02:20:30;4.83;;;3.63;;
44272;SDS011;29964;17.182;-96.766;2023-03-07T02:23:02;8.00;;;3.83;;
44272;SDS011;29964;17.182;-96.766;2023-03-07T02:28:27;7.63;;;3.23;;
44272;SDS011;29964;17.182;-96.766;2023-03-07T02:30:55;5.93;;;2.93;;
44272;SDS011;29964;17.182;-96.766;2023-03-07T02:33:23;10.20;;;4.87;;
44272;SDS011;29964;17.182;-96.766;2023-03-07T02:35:54;16.63;;;4.20;;
44272;SDS011;29964;17.182;-96.766;2023-03-07T02:38:22;6.30;;;3.50;;
44272;SDS011;29964;17.182;-96.766;2023-03-07T02:40:51;7.20;;;3.10;;
44272;SDS011;29964;17.182;-96.766;2023-03-07T02:43:18;6.70;;;2.40;;
44272;SDS011;29964;17.182;-96.766;2023-03-07T02:45:46;5.13;;;2.37;;
44272;SDS011;29964;17.182;-96.766;2023-03-07T02:48:13;6.30;;;3.20;;
44272;SDS011;29964;17.182;-96.766;2023-03-07T02:50:41;2.73;;;1.70;;
44272;SDS011;29964;17.182;-96.766;2023-03-07T02:53:07;5.13;;;2.63;;
44272;SDS011;29964;17.182;-96.766;2023-03-07T02:55:35;4.93;;;3.10;;
44272;SDS011;29964;17.182;-96.766;2023-03-07T02:58:02;5.93;;;3.17;;
44272;SDS011;29964;17.182;-96.766;2023-03-07T03:00:29;4.53;;;2.97;;
44272;SDS011;29964;17.182;-96.766;2023-03-07T03:02:56;17.10;;;4.57;;
44272;SDS011;29964;17.182;-96.766;2023-03-07T03:05:23;6.57;;;2.83;;
44272;SDS011;29964;17.182;-96.766;2023-03-07T03:07:51;6.70;;;3.83;;
44272;SDS011;29964;17.182;-96.766;2023-03-07T03:10:18;5.83;;;3.27;;
44272;SDS011;29964;17.182;-96.766;2023-03-07T03:12:45;4.47;;;3.37;;
44272;SDS011;29964;17.182;-96.766;2023-03-07T03:15:12;5.13;;;3.10;;
44272;SDS011;29964;17.182;-96.766;2023-03-07T03:17:42;11.50;;;4.63;;
44272;SDS011;29964;17.182;-96.766;2023-03-07T03:20:09;7.50;;;2.73;;
44272;SDS011;29964;17.182;-96.766;2023-03-07T03:22:38;6.10;;;3.23;;
44272;SDS011;29964;17.182;-96.766;2023-03-07T03:25:06;4.03;;;2.33;;
44272;SDS011;29964;17.182;-96.766;2023-03-07T03:27:34;19.17;;;6.40;;
44272;SDS011;29964;17.182;-96.766;2023-03-07T03:30:02;16.53;;;3.77;;
44272;SDS011;29964;17.182;-96.766;2023-03-07T03:32:31;14.20;;;3.87;;
44272;SDS011;29964;17.182;-96.766;2023-03-07T03:34:59;6.00;;;3.90;;
44272;SDS011;29964;17.182;-96.766;2023-03-07T03:37:25;19.00;;;6.17;;
44272;SDS011;29964;17.182;-96.766;2023-03-07T03:39:53;16.33;;;3.60;;
44272;SDS011;29964;17.182;-96.766;2023-03-07T03:42:20;6.07;;;3.10;;
44272;SDS011;29964;17.182;-96.766;2023-03-07T03:44:47;7.47;;;3.50;;
44272;SDS011;29964;17.182;-96.766;2023-03-07T03:47:14;9.23;;;4.57;;
44272;SDS011;29964;17.182;-96.766;2023-03-07T03:49:42;3.57;;;2.77;;
44272;SDS011;29964;17.182;-96.766;2023-03-07T03:52:09;9.87;;;4.83;;
44272;SDS011;29964;17.182;-96.766;2023-03-07T03:54:36;26.90;;;5.53;;
44272;SDS011;29964;17.182;-96.766;2023-03-07T03:57:03;10.10;;;4.90;;
44272;SDS011;29964;17.182;-96.766;2023-03-07T03:59:30;12.37;;;4.63;;
44272;SDS011;29964;17.182;-96.766;2023-03-07T04:01:57;6.13;;;2.97;;
44272;SDS011;29964;17.182;-96.766;2023-03-07T04:04:25;9.30;;;3.60;;
44272;SDS011;29964;17.182;-96.766;2023-03-07T04:06:52;5.57;;;3.37;;
44272;SDS011;29964;17.182;-96.766;2023-03-07T04:09:19;4.67;;;2.87;;
44272;SDS011;29964;17.182;-96.766;2023-03-07T04:11:46;4.70;;;3.27;;
44272;SDS011;29964;17.182;-96.766;2023-03-07T04:14:13;9.00;;;3.70;;
44272;SDS011;29964;17.182;-96.766;2023-03-07T04:16:40;3.63;;;2.60;;
44272;SDS011;29964;17.182;-96.766;2023-03-07T04:19:08;3.33;;;2.20;;
44272;SDS011;29964;17.182;-96.766;2023-03-07T04:21:37;4.93;;;3.03;;
44272;SDS011;29964;17.182;-96.766;2023-03-07T04:24:08;4.97;;;2.83;;
44272;SDS011;29964;17.182;-96.766;2023-03-07T04:26:35;6.03;;;4.00;;
44272;SDS011;29964;17.182;-96.766;2023-03-07T04:29:03;4.03;;;2.50;;
44272;SDS011;29964;17.182;-96.766;2023-03-07T04:31:30;8.77;;;3.13;;
44272;SDS011;29964;17.182;-96.766;2023-03-07T04:33:57;7.00;;;3.33;;
44272;SDS011;29964;17.182;-96.766;2023-03-07T04:36:24;3.87;;;2.37;;
44272;SDS011;29964;17.182;-96.766;2023-03-07T04:38:58;3.87;;;2.63;;
44272;SDS011;29964;17.182;-96.766;2023-03-07T04:41:25;5.93;;;2.43;;
44272;SDS011;29964;17.182;-96.766;2023-03-07T04:43:52;12.87;;;3.80;;
44272;SDS011;29964;17.182;-96.766;2023-03-07T04:46:19;3.73;;;2.77;;
44272;SDS011;29964;17.182;-96.766;2023-03-07T04:48:46;6.10;;;3.70;;
44272;SDS011;29964;17.182;-96.766;2023-03-07T04:51:13;8.63;;;4.00;;
44272;SDS011;29964;17.182;-96.766;2023-03-07T04:53:40;3.07;;;2.20;;
44272;SDS011;29964;17.182;-96.766;2023-03-07T04:56:07;3.43;;;2.70;;
44272;SDS011;29964;17.182;-96.766;2023-03-07T04:58:34;6.87;;;3.33;;
44272;SDS011;29964;17.182;-96.766;2023-03-07T05:01:02;5.30;;;3.67;;
44272;SDS011;29964;17.182;-96.766;2023-03-07T05:03:29;6.37;;;3.13;;
44272;SDS011;29964;17.182;-96.766;2023-03-07T05:05:59;2.77;;;2.03;;
44272;SDS011;29964;17.182;-96.766;2023-03-07T05:08:26;2.90;;;2.33;;
44272;SDS011;29964;17.182;-96.766;2023-03-07T05:10:52;6.43;;;3.47;;
44272;SDS011;29964;17.182;-96.766;2023-03-07T05:13:19;4.17;;;3.17;;
44272;SDS011;29964;17.182;-96.766;2023-03-07T05:15:52;4.73;;;2.97;;
44272;SDS011;29964;17.182;-96.766;2023-03-07T05:18:19;5.03;;;3.73;;
44272;SDS011;29964;17.182;-96.766;2023-03-07T05:20:49;3.77;;;2.63;;
44272;SDS011;29964;17.182;-96.766;2023-03-07T05:23:16;3.70;;;2.77;;
44272;SDS011;29964;17.182;-96.766;2023-03-07T05:25:43;3.53;;;2.40;;
44272;SDS011;29964;17.182;-96.766;2023-03-07T05:28:11;5.00;;;2.80;;
44272;SDS011;29964;17.182;-96.766;2023-03-07T05:30:38;2.77;;;2.20;;
44272;SDS011;29964;17.182;-96.766;2023-03-07T05:33:04;4.60;;;3.17;;
44272;SDS011;29964;17.182;-96.766;2023-03-07T05:35:31;4.93;;;2.87;;
44272;SDS011;29964;17.182;-96.766;2023-03-07T05:37:59;3.47;;;2.73;;
44272;SDS011;29964;17.182;-96.766;2023-03-07T05:40:25;4.77;;;2.33;;
44272;SDS011;29964;17.182;-96.766;2023-03-07T05:42:52;9.77;;;4.23;;
44272;SDS011;29964;17.182;-96.766;2023-03-07T05:45:19;8.00;;;4.37;;
44272;SDS011;29964;17.182;-96.766;2023-03-07T05:47:46;2.47;;;1.83;;
44272;SDS011;29964;17.182;-96.766;2023-03-07T05:50:12;5.83;;;3.23;;
44272;SDS011;29964;17.182;-96.766;2023-03-07T05:52:39;21.67;;;4.20;;
44272;SDS011;29964;17.182;-96.766;2023-03-07T05:55:06;4.30;;;3.10;;
44272;SDS011;29964;17.182;-96.766;2023-03-07T05:57:38;3.80;;;2.13;;
44272;SDS011;29964;17.182;-96.766;2023-03-07T06:00:05;7.37;;;3.47;;
44272;SDS011;29964;17.182;-96.766;2023-03-07T06:02:32;4.70;;;3.17;;
44272;SDS011;29964;17.182;-96.766;2023-03-07T06:04:59;5.73;;;3.20;;
44272;SDS011;29964;17.182;-96.766;2023-03-07T06:07:26;16.60;;;3.67;;
44272;SDS011;29964;17.182;-96.766;2023-03-07T06:09:52;9.00;;;4.23;;
44272;SDS011;29964;17.182;-96.766;2023-03-07T06:12:19;4.57;;;3.20;;
44272;SDS011;29964;17.182;-96.766;2023-03-07T06:14:46;5.97;;;4.40;;
44272;SDS011;29964;17.182;-96.766;2023-03-07T06:17:12;7.77;;;4.50;;
44272;SDS011;29964;17.182;-96.766;2023-03-07T06:19:39;13.93;;;4.63;;
44272;SDS011;29964;17.182;-96.766;2023-03-07T06:22:06;10.87;;;4.37;;
44272;SDS011;29964;17.182;-96.766;2023-03-07T06:24:33;11.47;;;5.13;;
44272;SDS011;29964;17.182;-96.766;2023-03-07T06:26:59;6.30;;;3.83;;
44272;SDS011;29964;17.182;-96.766;2023-03-07T06:29:26;6.57;;;4.00;;
44272;SDS011;29964;17.182;-96.766;2023-03-07T06:31:53;7.00;;;4.40;;
44272;SDS011;29964;17.182;-96.766;2023-03-07T06:34:19;6.10;;;4.10;;
44272;SDS011;29964;17.182;-96.766;2023-03-07T06:36:46;22.50;;;5.27;;
44272;SDS011;29964;17.182;-96.766;2023-03-07T06:39:13;40.03;;;8.03;;
44272;SDS011;29964;17.182;-96.766;2023-03-07T06:41:50;9.13;;;5.17;;
44272;SDS011;29964;17.182;-96.766;2023-03-07T06:44:17;13.03;;;5.30;;
44272;SDS011;29964;17.182;-96.766;2023-03-07T06:46:44;23.87;;;4.33;;
44272;SDS011;29964;17.182;-96.766;2023-03-07T06:49:11;11.50;;;5.73;;
44272;SDS011;29964;17.182;-96.766;2023-03-07T06:51:37;11.70;;;5.70;;
44272;SDS011;29964;17.182;-96.766;2023-03-07T06:54:04;40.07;;;13.93;;
44272;SDS011;29964;17.182;-96.766;2023-03-07T06:56:31;7.17;;;4.30;;
44272;SDS011;29964;17.182;-96.766;2023-03-07T06:58:59;6.73;;;4.27;;
44272;SDS011;29964;17.182;-96.766;2023-03-07T07:01:25;3.70;;;2.70;;
44272;SDS011;29964;17.182;-96.766;2023-03-07T07:03:52;4.37;;;2.67;;
44272;SDS011;29964;17.182;-96.766;2023-03-07T07:06:19;4.37;;;2.83;;
44272;SDS011;29964;17.182;-96.766;2023-03-07T07:08:45;11.33;;;6.53;;
44272;SDS011;29964;17.182;-96.766;2023-03-07T07:11:12;21.80;;;5.60;;
44272;SDS011;29964;17.182;-96.766;2023-03-07T07:13:38;6.57;;;3.50;;
44272;SDS011;29964;17.182;-96.766;2023-03-07T07:16:06;7.17;;;4.70;;
44272;SDS011;29964;17.182;-96.766;2023-03-07T07:18:33;10.83;;;4.10;;
44272;SDS011;29964;17.182;-96.766;2023-03-07T07:20:59;14.63;;;4.27;;
44272;SDS011;29964;17.182;-96.766;2023-03-07T07:23:26;7.90;;;4.07;;
44272;SDS011;29964;17.182;-96.766;2023-03-07T07:25:53;4.83;;;2.80;;
44272;SDS011;29964;17.182;-96.766;2023-03-07T07:28:20;4.13;;;2.50;;
44272;SDS011;29964;17.182;-96.766;2023-03-07T07:30:47;5.87;;;3.03;;
44272;SDS011;29964;17.182;-96.766;2023-03-07T07:33:13;6.97;;;4.73;;
44272;SDS011;29964;17.182;-96.766;2023-03-07T07:35:43;4.83;;;3.23;;
44272;SDS011;29964;17.182;-96.766;2023-03-07T07:38:10;4.37;;;2.80;;
44272;SDS011;29964;17.182;-96.766;2023-03-07T07:40:37;5.97;;;2.87;;
44272;SDS011;29964;17.182;-96.766;2023-03-07T07:43:04;4.37;;;2.90;;
44272;SDS011;29964;17.182;-96.766;2023-03-07T07:45:30;5.23;;;1.90;;
44272;SDS011;29964;17.182;-96.766;2023-03-07T07:47:57;5.33;;;3.30;;
44272;SDS011;29964;17.182;-96.766;2023-03-07T07:50:24;16.80;;;4.00;;
44272;SDS011;29964;17.182;-96.766;2023-03-07T07:52:51;3.07;;;2.20;;
44272;SDS011;29964;17.182;-96.766;2023-03-07T07:55:18;3.47;;;2.13;;
44272;SDS011;29964;17.182;-96.766;2023-03-07T07:57:45;3.07;;;2.43;;
44272;SDS011;29964;17.182;-96.766;2023-03-07T08:00:12;5.17;;;2.73;;
44272;SDS011;29964;17.182;-96.766;2023-03-07T08:02:43;5.30;;;3.07;;
44272;SDS011;29964;17.182;-96.766;2023-03-07T08:05:10;17.23;;;2.97;;
44272;SDS011;29964;17.182;-96.766;2023-03-07T08:07:37;2.80;;;1.90;;
44272;SDS011;29964;17.182;-96.766;2023-03-07T08:10:03;3.13;;;1.93;;
44272;SDS011;29964;17.182;-96.766;2023-03-07T08:12:30;3.13;;;2.10;;
44272;SDS011;29964;17.182;-96.766;2023-03-07T08:14:57;2.60;;;1.90;;
44272;SDS011;29964;17.182;-96.766;2023-03-07T08:17:23;4.07;;;3.00;;
44272;SDS011;29964;17.182;-96.766;2023-03-07T08:19:50;4.43;;;2.57;;
44272;SDS011;29964;17.182;-96.766;2023-03-07T08:22:17;3.43;;;2.37;;
44272;SDS011;29964;17.182;-96.766;2023-03-07T08:24:44;5.67;;;4.37;;
44272;SDS011;29964;17.182;-96.766;2023-03-07T08:27:11;3.77;;;3.03;;
44272;SDS011;29964;17.182;-96.766;2023-03-07T08:29:38;4.17;;;3.40;;
44272;SDS011;29964;17.182;-96.766;2023-03-07T08:32:05;5.03;;;3.90;;
44272;SDS011;29964;17.182;-96.766;2023-03-07T08:34:32;4.77;;;3.20;;
44272;SDS011;29964;17.182;-96.766;2023-03-07T08:36:58;5.53;;;2.70;;
44272;SDS011;29964;17.182;-96.766;2023-03-07T08:39:25;11.90;;;3.17;;
44272;SDS011;29964;17.182;-96.766;2023-03-07T08:41:52;2.73;;;1.70;;
44272;SDS011;29964;17.182;-96.766;2023-03-07T08:44:19;5.37;;;3.23;;
44272;SDS011;29964;17.182;-96.766;2023-03-07T08:46:46;8.43;;;3.00;;
44272;SDS011;29964;17.182;-96.766;2023-03-07T08:49:12;4.63;;;2.93;;
44272;SDS011;29964;17.182;-96.766;2023-03-07T08:51:39;7.07;;;2.83;;
44272;SDS011;29964;17.182;-96.766;2023-03-07T08:54:06;3.87;;;2.67;;
44272;SDS011;29964;17.182;-96.766;2023-03-07T08:56:32;4.93;;;3.00;;
44272;SDS011;29964;17.182;-96.766;2023-03-07T08:58:59;6.40;;;2.00;;
44272;SDS011;29964;17.182;-96.766;2023-03-07T09:01:26;2.97;;;2.53;;
44272;SDS011;29964;17.182;-96.766;2023-03-07T09:03:53;4.43;;;2.93;;
44272;SDS011;29964;17.182;-96.766;2023-03-07T09:06:19;4.20;;;3.00;;
44272;SDS011;29964;17.182;-96.766;2023-03-07T09:08:47;6.40;;;4.27;;
44272;SDS011;29964;17.182;-96.766;2023-03-07T09:11:14;3.97;;;2.90;;
44272;SDS011;29964;17.182;-96.766;2023-03-07T09:13:41;6.83;;;3.93;;
44272;SDS011;29964;17.182;-96.766;2023-03-07T09:16:08;4.80;;;3.27;;
44272;SDS011;29964;17.182;-96.766;2023-03-07T09:18:35;6.43;;;3.13;;
44272;SDS011;29964;17.182;-96.766;2023-03-07T09:21:02;5.40;;;3.27;;
44272;SDS011;29964;17.182;-96.766;2023-03-07T09:23:30;4.03;;;3.13;;
44272;SDS011;29964;17.182;-96.766;2023-03-07T09:26:00;11.40;;;3.13;;
44272;SDS011;29964;17.182;-96.766;2023-03-07T09:28:28;5.50;;;3.30;;
44272;SDS011;29964;17.182;-96.766;2023-03-07T09:30:55;4.17;;;2.57;;
44272;SDS011;29964;17.182;-96.766;2023-03-07T09:33:21;5.07;;;3.00;;
44272;SDS011;29964;17.182;-96.766;2023-03-07T09:35:48;13.30;;;6.77;;
44272;SDS011;29964;17.182;-96.766;2023-03-07T09:38:15;5.67;;;4.00;;
44272;SDS011;29964;17.182;-96.766;2023-03-07T09:40:42;10.83;;;4.40;;
44272;SDS011;29964;17.182;-96.766;2023-03-07T09:43:20;5.50;;;4.13;;
44272;SDS011;29964;17.182;-96.766;2023-03-07T09:50:59;4.27;;;2.70;;
44272;SDS011;29964;17.182;-96.766;2023-03-07T09:55:56;7.70;;;3.87;;
44272;SDS011;29964;17.182;-96.766;2023-03-07T09:58:23;4.57;;;3.27;;
44272;SDS011;29964;17.182;-96.766;2023-03-07T10:00:54;7.53;;;3.70;;
44272;SDS011;29964;17.182;-96.766;2023-03-07T10:05:52;4.57;;;2.57;;
44272;SDS011;29964;17.182;-96.766;2023-03-07T10:08:27;7.73;;;3.20;;
44272;SDS011;29964;17.182;-96.766;2023-03-07T10:16:00;5.20;;;3.80;;
44272;SDS011;29964;17.182;-96.766;2023-03-07T10:18:41;5.33;;;3.60;;
44272;SDS011;29964;17.182;-96.766;2023-03-07T10:21:22;4.90;;;3.07;;
44272;SDS011;29964;17.182;-96.766;2023-03-07T10:24:04;4.40;;;3.00;;
44272;SDS011;29964;17.182;-96.766;2023-03-07T10:26:45;5.57;;;3.38;;
44272;SDS011;29964;17.182;-96.766;2023-03-07T10:29:14;5.53;;;3.20;;
44272;SDS011;29964;17.182;-96.766;2023-03-07T10:31:43;4.60;;;3.03;;
44272;SDS011;29964;17.182;-96.766;2023-03-07T10:34:24;5.07;;;4.00;;
44272;SDS011;29964;17.182;-96.766;2023-03-07T10:36:52;6.17;;;3.60;;
44272;SDS011;29964;17.182;-96.766;2023-03-07T10:41:50;6.00;;;4.17;;
44272;SDS011;29964;17.182;-96.766;2023-03-07T10:44:18;6.50;;;3.90;;
44272;SDS011;29964;17.182;-96.766;2023-03-07T10:46:45;6.27;;;4.20;;
44272;SDS011;29964;17.182;-96.766;2023-03-07T10:49:13;4.63;;;3.23;;
44272;SDS011;29964;17.182;-96.766;2023-03-07T10:51:59;8.90;;;4.87;;
44272;SDS011;29964;17.182;-96.766;2023-03-07T10:54:28;5.90;;;3.15;;
44272;SDS011;29964;17.182;-96.766;2023-03-07T10:57:05;8.33;;;4.67;;
44272;SDS011;29964;17.182;-96.766;2023-03-07T10:59:32;4.97;;;4.00;;
44272;SDS011;29964;17.182;-96.766;2023-03-07T11:01:59;5.87;;;3.60;;
44272;SDS011;29964;17.182;-96.766;2023-03-07T11:04:28;4.53;;;3.00;;
44272;SDS011;29964;17.182;-96.766;2023-03-07T11:06:55;9.10;;;5.37;;
44272;SDS011;29964;17.182;-96.766;2023-03-07T11:12:31;4.67;;;2.87;;
44272;SDS011;29964;17.182;-96.766;2023-03-07T11:17:39;9.13;;;4.45;;
44272;SDS011;29964;17.182;-96.766;2023-03-07T11:22:48;4.17;;;3.03;;
44272;SDS011;29964;17.182;-96.766;2023-03-07T11:25:22;9.70;;;3.63;;
44272;SDS011;29964;17.182;-96.766;2023-03-07T11:30:18;8.40;;;4.07;;
44272;SDS011;29964;17.182;-96.766;2023-03-07T11:35:33;7.53;;;3.90;;
44272;SDS011;29964;17.182;-96.766;2023-03-07T11:38:11;4.27;;;2.70;;
44272;SDS011;29964;17.182;-96.766;2023-03-07T11:40:44;3.93;;;3.07;;
44272;SDS011;29964;17.182;-96.766;2023-03-07T11:43:21;4.37;;;3.17;;
44272;SDS011;29964;17.182;-96.766;2023-03-07T11:48:18;6.93;;;4.07;;
44272;SDS011;29964;17.182;-96.766;2023-03-07T11:50:50;8.07;;;4.30;;
44272;SDS011;29964;17.182;-96.766;2023-03-07T12:01:43;13.43;;;6.65;;
44272;SDS011;29964;17.182;-96.766;2023-03-07T12:07:03;15.50;;;4.87;;
44272;SDS011;29964;17.182;-96.766;2023-03-07T12:17:53;15.75;;;8.55;;
44272;SDS011;29964;17.182;-96.766;2023-03-07T12:20:26;40.10;;;7.10;;
44272;SDS011;29964;17.182;-96.766;2023-03-07T12:23:13;12.80;;;7.25;;
44272;SDS011;29964;17.182;-96.766;2023-03-07T12:25:42;15.43;;;7.13;;
44272;SDS011;29964;17.182;-96.766;2023-03-07T12:28:26;15.57;;;5.93;;
44272;SDS011;29964;17.182;-96.766;2023-03-07T12:31:07;10.53;;;6.23;;
44272;SDS011;29964;17.182;-96.766;2023-03-07T12:33:46;37.93;;;6.60;;
44272;SDS011;29964;17.182;-96.766;2023-03-07T12:36:16;11.10;;;7.43;;
44272;SDS011;29964;17.182;-96.766;2023-03-07T12:38:49;23.07;;;8.40;;
44272;SDS011;29964;17.182;-96.766;2023-03-07T12:43:51;11.87;;;6.17;;
44272;SDS011;29964;17.182;-96.766;2023-03-07T12:49:13;8.88;;;6.55;;
44272;SDS011;29964;17.182;-96.766;2023-03-07T12:52:03;8.57;;;5.73;;
44272;SDS011;29964;17.182;-96.766;2023-03-07T12:54:29;12.13;;;6.47;;
44272;SDS011;29964;17.182;-96.766;2023-03-07T12:59:37;12.43;;;8.00;;
44272;SDS011;29964;17.182;-96.766;2023-03-07T13:02:12;12.47;;;5.73;;
44272;SDS011;29964;17.182;-96.766;2023-03-07T13:04:41;5.37;;;3.60;;
44272;SDS011;29964;17.182;-96.766;2023-03-07T13:07:12;8.80;;;5.73;;
44272;SDS011;29964;17.182;-96.766;2023-03-07T13:09:43;9.03;;;4.73;;
44272;SDS011;29964;17.182;-96.766;2023-03-07T13:20:01;16.77;;;7.43;;
44272;SDS011;29964;17.182;-96.766;2023-03-07T13:27:46;9.35;;;4.90;;
44272;SDS011;29964;17.182;-96.766;2023-03-07T13:30:19;8.77;;;6.30;;
44272;SDS011;29964;17.182;-96.766;2023-03-07T13:37:58;6.93;;;5.10;;
44272;SDS011;29964;17.182;-96.766;2023-03-07T13:42:55;8.53;;;5.97;;
44272;SDS011;29964;17.182;-96.766;2023-03-07T13:48:04;8.50;;;5.37;;
44272;SDS011;29964;17.182;-96.766;2023-03-07T13:53:20;14.33;;;6.83;;
44272;SDS011;29964;17.182;-96.766;2023-03-07T13:55:49;10.73;;;5.27;;
44272;SDS011;29964;17.182;-96.766;2023-03-07T13:58:52;9.97;;;7.13;;
44272;SDS011;29964;17.182;-96.766;2023-03-07T14:01:25;6.73;;;4.70;;
44272;SDS011;29964;17.182;-96.766;2023-03-07T14:08:46;10.60;;;6.23;;
44272;SDS011;29964;17.182;-96.766;2023-03-07T14:11:21;12.60;;;5.77;;
44272;SDS011;29964;17.182;-96.766;2023-03-07T14:16:34;14.60;;;6.57;;
44272;SDS011;29964;17.182;-96.766;2023-03-07T14:19:26;14.70;;;7.47;;
44272;SDS011;29964;17.182;-96.766;2023-03-07T14:21:59;10.10;;;7.07;;
44272;SDS011;29964;17.182;-96.766;2023-03-07T14:26:59;13.77;;;7.67;;
44272;SDS011;29964;17.182;-96.766;2023-03-07T14:29:28;24.63;;;7.83;;
44272;SDS011;29964;17.182;-96.766;2023-03-07T14:31:56;10.73;;;5.63;;
44272;SDS011;29964;17.182;-96.766;2023-03-07T14:36:57;6.73;;;4.33;;
44272;SDS011;29964;17.182;-96.766;2023-03-07T14:39:28;16.27;;;6.43;;
44272;SDS011;29964;17.182;-96.766;2023-03-07T14:47:34;7.18;;;4.22;;
44272;SDS011;29964;17.182;-96.766;2023-03-07T14:50:12;10.17;;;5.37;;
44272;SDS011;29964;17.182;-96.766;2023-03-07T14:52:40;8.87;;;4.80;;
44272;SDS011;29964;17.182;-96.766;2023-03-07T14:55:08;9.00;;;5.67;;
44272;SDS011;29964;17.182;-96.766;2023-03-07T14:57:40;8.90;;;4.97;;
44272;SDS011;29964;17.182;-96.766;2023-03-07T15:00:12;8.23;;;5.70;;
44272;SDS011;29964;17.182;-96.766;2023-03-07T15:02:52;8.70;;;6.03;;
44272;SDS011;29964;17.182;-96.766;2023-03-07T15:05:20;26.67;;;6.43;;
44272;SDS011;29964;17.182;-96.766;2023-03-07T15:07:47;7.30;;;4.80;;
44272;SDS011;29964;17.182;-96.766;2023-03-07T15:10:16;10.67;;;5.43;;
44272;SDS011;29964;17.182;-96.766;2023-03-07T15:12:46;25.53;;;6.13;;
44272;SDS011;29964;17.182;-96.766;2023-03-07T15:15:21;13.33;;;7.27;;
44272;SDS011;29964;17.182;-96.766;2023-03-07T15:17:49;10.48;;;6.25;;
44272;SDS011;29964;17.182;-96.766;2023-03-07T15:20:20;14.20;;;4.70;;
44272;SDS011;29964;17.182;-96.766;2023-03-07T15:22:47;8.00;;;4.77;;
44272;SDS011;29964;17.182;-96.766;2023-03-07T15:25:18;8.77;;;5.50;;
44272;SDS011;29964;17.182;-96.766;2023-03-07T15:27:46;17.67;;;7.67;;
44272;SDS011;29964;17.182;-96.766;2023-03-07T15:30:21;7.77;;;4.83;;
44272;SDS011;29964;17.182;-96.766;2023-03-07T15:32:48;11.90;;;6.60;;
44272;SDS011;29964;17.182;-96.766;2023-03-07T15:35:28;7.67;;;4.73;;
44272;SDS011;29964;17.182;-96.766;2023-03-07T15:37:55;14.13;;;6.13;;
44272;SDS011;29964;17.182;-96.766;2023-03-07T15:43:00;11.77;;;6.23;;
44272;SDS011;29964;17.182;-96.766;2023-03-07T15:45:43;7.77;;;4.73;;
44272;SDS011;29964;17.182;-96.766;2023-03-07T15:48:15;9.90;;;5.47;;
44272;SDS011;29964;17.182;-96.766;2023-03-07T15:50:55;10.53;;;5.20;;
44272;SDS011;29964;17.182;-96.766;2023-03-07T15:53:27;9.53;;;4.67;;
44272;SDS011;29964;17.182;-96.766;2023-03-07T15:55:56;8.37;;;5.97;;
44272;SDS011;29964;17.182;-96.766;2023-03-07T15:58:24;12.27;;;6.57;;
44272;SDS011;29964;17.182;-96.766;2023-03-07T16:01:02;8.90;;;4.63;;
44272;SDS011;29964;17.182;-96.766;2023-03-07T16:03:29;8.37;;;5.07;;
44272;SDS011;29964;17.182;-96.766;2023-03-07T16:05:57;16.53;;;5.83;;
44272;SDS011;29964;17.182;-96.766;2023-03-07T16:08:24;11.30;;;5.50;;
44272;SDS011;29964;17.182;-96.766;2023-03-07T16:10:56;10.33;;;5.93;;
44272;SDS011;29964;17.182;-96.766;2023-03-07T16:13:24;8.47;;;4.67;;
44272;SDS011;29964;17.182;-96.766;2023-03-07T16:16:06;7.33;;;4.43;;
44272;SDS011;29964;17.182;-96.766;2023-03-07T16:18:40;11.03;;;6.00;;
44272;SDS011;29964;17.182;-96.766;2023-03-07T16:21:08;12.70;;;5.93;;
44272;SDS011;29964;17.182;-96.766;2023-03-07T16:23:38;12.77;;;6.67;;
44272;SDS011;29964;17.182;-96.766;2023-03-07T16:26:04;8.88;;;5.30;;
44272;SDS011;29964;17.182;-96.766;2023-03-07T16:28:32;10.45;;;4.88;;